Time;durP1;ratioP1;P1;durP2;ratioP2;P2;SDS_P1;SDS_P2;PMS_P1;PMS_P2;Temp;Humidity;BMP_temperature;BMP_pressure;BME280_temperature;BME280_humidity;BME280_pressure;Samples;Min_cycle;Max_cycle;Signal;HPM_P1;HPM_P2
2023/08/15 00:01:58;;;;;;;56.83;3.40;;;;;;;;;;5051093;28;20453;-69
2023/08/15 00:04:25;;;;;;;57.00;3.43;;;;;;;;;;5051267;28;20464;-69
2023/08/15 00:06:52;;;;;;;56.67;2.40;;;;;;;;;;5053141;28;20858;-68
2023/08/15 00:09:19;;;;;;;57.30;3.23;;;;;;;;;;5054932;28;20442;-68
2023/08/15 00:11:46;;;;;;;56.87;2.80;;;;;;;;;;5054681;28;20440;-68
2023/08/15 00:14:15;;;;;;;57.63;3.33;;;;;;;;;;5054599;28;20463;-69
2023/08/15 00:16:42;;;;;;;56.90;2.40;;;;;;;;;;5054894;28;20517;-68
2023/08/15 00:19:11;;;;;;;60.17;4.83;;;;;;;;;;5054709;28;20445;-69
2023/08/15 00:21:38;;;;;;;57.40;3.10;;;;;;;;;;5054922;28;20444;-69
2023/08/15 00:24:05;;;;;;;57.30;3.60;;;;;;;;;;5054568;28;20470;-69
2023/08/15 00:26:32;;;;;;;56.33;3.13;;;;;;;;;;5054573;28;20444;-69
2023/08/15 00:29:00;;;;;;;56.93;3.00;;;;;;;;;;5054335;28;20480;-69
2023/08/15 00:31:27;;;;;;;57.60;3.70;;;;;;;;;;5054663;28;20573;-69
2023/08/15 00:33:54;;;;;;;56.20;2.60;;;;;;;;;;5054331;28;20488;-69
2023/08/15 00:36:22;;;;;;;57.37;3.40;;;;;;;;;;5054488;28;20451;-69
2023/08/15 00:38:49;;;;;;;56.80;3.03;;;;;;;;;;5054263;28;20864;-68
2023/08/15 00:41:16;;;;;;;57.20;3.20;;;;;;;;;;5054274;28;20440;-69
2023/08/15 00:43:43;;;;;;;58.40;3.40;;;;;;;;;;5054108;28;20468;-68
2023/08/15 00:46:11;;;;;;;57.00;2.90;;;;;;;;;;5054302;28;20450;-68
2023/08/15 00:48:38;;;;;;;57.30;3.10;;;;;;;;;;5054090;28;20491;-69
2023/08/15 00:51:06;;;;;;;57.33;4.00;;;;;;;;;;5054125;28;20810;-69
2023/08/15 00:53:35;;;;;;;56.80;3.10;;;;;;;;;;5053824;28;20496;-69
2023/08/15 00:56:03;;;;;;;57.97;3.20;;;;;;;;;;5053914;28;20451;-69
2023/08/15 00:58:30;;;;;;;57.37;3.80;;;;;;;;;;5054243;28;20447;-69
2023/08/15 01:00:58;;;;;;;56.77;2.77;;;;;;;;;;5053893;28;20455;-69
2023/08/15 01:03:25;;;;;;;57.67;4.03;;;;;;;;;;5053738;28;20551;-69
2023/08/15 01:05:52;;;;;;;56.70;2.43;;;;;;;;;;5053897;28;20440;-69
2023/08/15 01:08:19;;;;;;;57.30;3.07;;;;;;;;;;5053692;28;20484;-69
2023/08/15 01:10:48;;;;;;;56.57;2.90;;;;;;;;;;5053970;28;20448;-69
2023/08/15 01:13:18;;;;;;;57.03;3.50;;;;;;;;;;5053353;28;20984;-69
2023/08/15 01:15:47;;;;;;;58.20;3.00;;;;;;;;;;5053748;28;20455;-69
2023/08/15 01:18:17;;;;;;;56.70;2.40;;;;;;;;;;5051147;28;20476;-69
2023/08/15 01:20:44;;;;;;;56.23;2.37;;;;;;;;;;5053516;28;20452;-68
2023/08/15 01:23:14;;;;;;;56.77;2.73;;;;;;;;;;5053609;28;20972;-69
2023/08/15 01:25:43;;;;;;;57.17;3.63;;;;;;;;;;5053566;28;20831;-69
2023/08/15 01:28:12;;;;;;;56.80;2.60;;;;;;;;;;5053402;28;20996;-69
2023/08/15 01:30:40;;;;;;;57.50;3.67;;;;;;;;;;5053434;28;20448;-68
2023/08/15 01:33:10;;;;;;;56.57;3.00;;;;;;;;;;5053069;28;20466;-68
2023/08/15 01:35:40;;;;;;;57.47;3.63;;;;;;;;;;5053381;28;20470;-69
2023/08/15 01:38:09;;;;;;;57.00;2.50;;;;;;;;;;5053362;28;20832;-69
2023/08/15 01:40:37;;;;;;;56.77;3.00;;;;;;;;;;5053317;28;20455;-69
2023/08/15 01:43:06;;;;;;;57.90;3.63;;;;;;;;;;5052970;28;20483;-68
2023/08/15 01:45:34;;;;;;;56.77;2.60;;;;;;;;;;5052980;28;20531;-68
2023/08/15 01:48:02;;;;;;;56.23;2.20;;;;;;;;;;5052856;28;20988;-68
2023/08/15 01:53:32;;;;;;;56.80;2.60;;;;;;;;;;5050951;28;20411;-68
2023/08/15 01:55:59;;;;;;;57.47;2.80;;;;;;;;;;5052954;28;20444;-68
2023/08/15 01:58:28;;;;;;;57.97;3.10;;;;;;;;;;5052801;28;20443;-68
2023/08/15 02:00:55;;;;;;;57.77;2.80;;;;;;;;;;5052717;28;20470;-68
2023/08/15 02:03:22;;;;;;;57.00;2.60;;;;;;;;;;5052809;28;20461;-68
2023/08/15 02:05:49;;;;;;;56.43;2.10;;;;;;;;;;5052857;28;20835;-68
2023/08/15 02:08:16;;;;;;;57.33;2.73;;;;;;;;;;5052690;28;20867;-68
2023/08/15 02:10:43;;;;;;;57.30;2.97;;;;;;;;;;5052681;28;20538;-68
2023/08/15 02:13:10;;;;;;;56.50;2.57;;;;;;;;;;5052208;28;20464;-68
2023/08/15 02:15:39;;;;;;;57.00;2.60;;;;;;;;;;5052658;28;20456;-68
2023/08/15 02:18:06;;;;;;;58.57;4.07;;;;;;;;;;5052461;28;20440;-68
2023/08/15 02:20:33;;;;;;;56.37;2.50;;;;;;;;;;5052542;28;20447;-68
2023/08/15 02:23:00;;;;;;;57.00;3.43;;;;;;;;;;5052067;28;20464;-68
2023/08/15 02:25:27;;;;;;;56.60;2.60;;;;;;;;;;5052350;28;20446;-68
2023/08/15 02:27:54;;;;;;;56.07;2.70;;;;;;;;;;5052155;28;20484;-69
2023/08/15 02:30:21;;;;;;;57.07;3.30;;;;;;;;;;5051222;28;20929;-68
2023/08/15 02:32:50;;;;;;;57.40;3.00;;;;;;;;;;5052086;28;20440;-69
2023/08/15 02:35:17;;;;;;;57.27;3.10;;;;;;;;;;5052238;28;20453;-69
2023/08/15 02:37:44;;;;;;;56.87;2.97;;;;;;;;;;5052079;28;20458;-68
2023/08/15 02:40:12;;;;;;;56.13;2.63;;;;;;;;;;5052141;28;20456;-69
2023/08/15 02:42:39;;;;;;;58.30;2.83;;;;;;;;;;5051825;28;20951;-68
2023/08/15 02:45:07;;;;;;;56.90;2.50;;;;;;;;;;5052015;28;20966;-68
2023/08/15 02:47:34;;;;;;;57.00;2.97;;;;;;;;;;5052082;28;20445;-69
2023/08/15 02:50:02;;;;;;;57.10;2.80;;;;;;;;;;5052112;28;20444;-69
2023/08/15 02:52:29;;;;;;;56.40;2.40;;;;;;;;;;5051716;28;20812;-69
2023/08/15 02:54:56;;;;;;;57.63;3.47;;;;;;;;;;5051882;28;20463;-69
2023/08/15 02:57:23;;;;;;;57.00;3.23;;;;;;;;;;5052410;28;20452;-68
2023/08/15 02:59:50;;;;;;;56.77;2.60;;;;;;;;;;5052171;28;20447;-68
2023/08/15 03:02:17;;;;;;;57.60;3.10;;;;;;;;;;5051669;28;20440;-68
2023/08/15 03:04:44;;;;;;;56.40;2.60;;;;;;;;;;5051743;28;20465;-69
2023/08/15 03:07:13;;;;;;;57.53;3.90;;;;;;;;;;5051563;28;20451;-69
2023/08/15 03:09:40;;;;;;;57.37;3.60;;;;;;;;;;5051853;28;20483;-69
2023/08/15 03:12:07;;;;;;;58.17;3.10;;;;;;;;;;5051304;28;20448;-69
2023/08/15 03:14:34;;;;;;;56.93;3.10;;;;;;;;;;5051590;28;20466;-69
2023/08/15 03:17:03;;;;;;;56.27;2.50;;;;;;;;;;5051681;28;20445;-69
2023/08/15 03:19:30;;;;;;;56.60;2.83;;;;;;;;;;5051484;28;20443;-69
2023/08/15 03:21:57;;;;;;;56.57;2.53;;;;;;;;;;5051108;28;20475;-69
2023/08/15 03:24:26;;;;;;;57.00;3.00;;;;;;;;;;5051670;28;20460;-69
2023/08/15 03:26:53;;;;;;;56.57;2.43;;;;;;;;;;5051493;28;20444;-69
2023/08/15 03:29:20;;;;;;;57.00;2.80;;;;;;;;;;5051440;28;20476;-68
2023/08/15 03:31:47;;;;;;;56.83;2.83;;;;;;;;;;5051046;28;20444;-68
2023/08/15 03:34:14;;;;;;;60.17;5.73;;;;;;;;;;5051147;28;20464;-68
2023/08/15 03:36:42;;;;;;;56.90;3.53;;;;;;;;;;5051006;28;20448;-68
2023/08/15 03:39:09;;;;;;;57.17;3.10;;;;;;;;;;5051374;28;20436;-68
2023/08/15 03:41:37;;;;;;;57.40;2.87;;;;;;;;;;5050751;28;20440;-69
2023/08/15 03:44:05;;;;;;;57.00;2.60;;;;;;;;;;5050890;28;20472;-68
2023/08/15 03:46:32;;;;;;;56.60;2.80;;;;;;;;;;5051106;28;20463;-69
2023/08/15 03:48:59;;;;;;;56.90;3.30;;;;;;;;;;5050843;28;20487;-68
2023/08/15 03:51:26;;;;;;;56.83;2.93;;;;;;;;;;5050987;28;20451;-69
2023/08/15 03:53:53;;;;;;;56.80;2.50;;;;;;;;;;5050935;28;20490;-68
2023/08/15 03:56:20;;;;;;;56.87;2.90;;;;;;;;;;5051059;28;20818;-69
2023/08/15 03:58:49;;;;;;;58.80;3.00;;;;;;;;;;5051023;28;20444;-68
2023/08/15 04:01:16;;;;;;;56.57;2.60;;;;;;;;;;5051009;28;20445;-69
2023/08/15 04:03:43;;;;;;;56.90;2.77;;;;;;;;;;5050514;28;20465;-69
2023/08/15 04:06:10;;;;;;;57.17;3.37;;;;;;;;;;5050868;28;20970;-69
2023/08/15 04:08:37;;;;;;;56.57;2.77;;;;;;;;;;5051184;28;20856;-69
2023/08/15 04:11:04;;;;;;;57.83;3.40;;;;;;;;;;5050824;28;20445;-68
2023/08/15 04:13:31;;;;;;;56.50;2.50;;;;;;;;;;5050506;28;20507;-69
2023/08/15 04:15:59;;;;;;;57.60;4.13;;;;;;;;;;5050670;28;20484;-69
2023/08/15 04:18:26;;;;;;;56.80;2.80;;;;;;;;;;5050759;28;20786;-69
2023/08/15 04:20:54;;;;;;;57.60;2.80;;;;;;;;;;5050870;28;20454;-69
2023/08/15 04:23:21;;;;;;;56.90;2.57;;;;;;;;;;5050613;28;20468;-69
2023/08/15 04:25:48;;;;;;;56.90;2.60;;;;;;;;;;5050672;28;20833;-68
2023/08/15 04:28:15;;;;;;;56.80;2.90;;;;;;;;;;5050727;28;20446;-69
2023/08/15 04:30:43;;;;;;;56.57;2.57;;;;;;;;;;5050747;28;20458;-69
2023/08/15 04:33:11;;;;;;;56.60;2.30;;;;;;;;;;5050445;28;20461;-69
2023/08/15 04:35:39;;;;;;;57.07;3.07;;;;;;;;;;5050845;28;20531;-69
2023/08/15 04:38:06;;;;;;;57.60;2.87;;;;;;;;;;5050672;28;20466;-69
2023/08/15 04:40:34;;;;;;;57.37;2.83;;;;;;;;;;5050525;28;20455;-69
2023/08/15 04:43:02;;;;;;;58.27;3.60;;;;;;;;;;5050064;28;20812;-69
2023/08/15 04:45:29;;;;;;;57.00;2.87;;;;;;;;;;5050688;28;20443;-69
2023/08/15 04:47:56;;;;;;;56.83;2.47;;;;;;;;;;5050707;28;20440;-69
2023/08/15 04:50:24;;;;;;;58.77;4.20;;;;;;;;;;5050488;28;20854;-69
2023/08/15 04:52:52;;;;;;;57.57;3.43;;;;;;;;;;5050802;28;20467;-69
2023/08/15 04:55:19;;;;;;;57.53;3.33;;;;;;;;;;5054080;28;20446;-69
2023/08/15 04:57:46;;;;;;;56.80;3.10;;;;;;;;;;5054044;28;21013;-69
2023/08/15 05:00:15;;;;;;;56.57;2.90;;;;;;;;;;5054333;28;20448;-69
2023/08/15 05:02:42;;;;;;;56.97;2.80;;;;;;;;;;5053616;28;20505;-69
2023/08/15 05:05:10;;;;;;;57.90;3.30;;;;;;;;;;5054085;28;20446;-69
2023/08/15 05:07:39;;;;;;;56.97;3.00;;;;;;;;;;5053816;28;20452;-69
2023/08/15 05:10:07;;;;;;;57.37;2.87;;;;;;;;;;5053741;28;20480;-69
2023/08/15 05:12:34;;;;;;;57.27;3.47;;;;;;;;;;5053531;28;20452;-69
2023/08/15 05:15:02;;;;;;;56.60;2.40;;;;;;;;;;5053837;28;20554;-69
2023/08/15 05:17:29;;;;;;;57.00;2.97;;;;;;;;;;5053721;28;20446;-69
2023/08/15 05:19:56;;;;;;;57.53;3.27;;;;;;;;;;5053735;28;20443;-69
2023/08/15 05:22:23;;;;;;;57.37;3.40;;;;;;;;;;5053360;28;20444;-69
2023/08/15 05:24:51;;;;;;;58.50;3.90;;;;;;;;;;5053369;28;20483;-69
2023/08/15 05:27:18;;;;;;;57.37;4.23;;;;;;;;;;5053473;28;20930;-69
2023/08/15 05:29:45;;;;;;;59.17;2.97;;;;;;;;;;5053600;28;20566;-69
2023/08/15 05:32:12;;;;;;;56.63;2.30;;;;;;;;;;5053319;28;20440;-69
2023/08/15 05:34:39;;;;;;;56.67;3.10;;;;;;;;;;5053339;28;20476;-68
2023/08/15 05:37:07;;;;;;;57.50;3.33;;;;;;;;;;5053147;28;20468;-68
2023/08/15 05:39:34;;;;;;;57.17;2.90;;;;;;;;;;5053158;28;20811;-69
2023/08/15 05:42:02;;;;;;;56.80;2.70;;;;;;;;;;5053247;28;20444;-68
2023/08/15 05:44:29;;;;;;;57.30;3.70;;;;;;;;;;5053049;28;20472;-69
2023/08/15 05:46:56;;;;;;;57.80;3.50;;;;;;;;;;5053035;28;20955;-68
2023/08/15 05:49:24;;;;;;;56.10;2.60;;;;;;;;;;5053145;28;20866;-69
2023/08/15 05:51:52;;;;;;;58.70;5.27;;;;;;;;;;5052717;28;20440;-69
2023/08/15 05:54:19;;;;;;;56.77;2.40;;;;;;;;;;5053103;28;20479;-69
2023/08/15 05:56:46;;;;;;;56.50;3.60;;;;;;;;;;5052876;28;20450;-69
2023/08/15 05:59:15;;;;;;;57.07;3.30;;;;;;;;;;5052976;28;21054;-69
2023/08/15 06:01:42;;;;;;;57.03;2.93;;;;;;;;;;5052695;28;20440;-69
2023/08/15 06:04:09;;;;;;;57.10;3.27;;;;;;;;;;5052595;28;20466;-69
2023/08/15 06:06:36;;;;;;;56.47;2.67;;;;;;;;;;5053108;28;20440;-69
2023/08/15 06:09:03;;;;;;;57.73;2.80;;;;;;;;;;5052848;28;20484;-69
2023/08/15 06:11:30;;;;;;;56.53;2.83;;;;;;;;;;5052824;28;20502;-68
2023/08/15 06:13:57;;;;;;;56.37;2.50;;;;;;;;;;5052655;28;20468;-68
2023/08/15 06:16:26;;;;;;;56.60;2.80;;;;;;;;;;5052592;28;20449;-69
2023/08/15 06:18:53;;;;;;;57.17;2.73;;;;;;;;;;5052488;28;20448;-69
2023/08/15 06:21:20;;;;;;;56.27;2.60;;;;;;;;;;5052617;28;20452;-69
2023/08/15 06:23:48;;;;;;;56.30;2.20;;;;;;;;;;5052250;28;20460;-68
2023/08/15 06:26:15;;;;;;;57.27;3.43;;;;;;;;;;5052747;28;20471;-69
2023/08/15 06:28:42;;;;;;;57.70;4.67;;;;;;;;;;5052364;28;20455;-68
2023/08/15 06:31:09;;;;;;;57.27;3.83;;;;;;;;;;5052433;28;20447;-69
2023/08/15 06:33:37;;;;;;;57.10;2.93;;;;;;;;;;5051806;28;20475;-69
2023/08/15 06:36:04;;;;;;;56.50;2.53;;;;;;;;;;5052166;28;20962;-68
2023/08/15 06:38:32;;;;;;;56.50;2.80;;;;;;;;;;5051993;28;20970;-69
2023/08/15 06:40:59;;;;;;;56.30;2.90;;;;;;;;;;5052269;28;20815;-69
2023/08/15 06:43:26;;;;;;;56.40;2.57;;;;;;;;;;5051786;28;20494;-69
2023/08/15 06:45:53;;;;;;;56.07;2.37;;;;;;;;;;5052480;28;20444;-69
2023/08/15 06:48:20;;;;;;;57.17;2.60;;;;;;;;;;5051923;28;20452;-69
2023/08/15 06:50:49;;;;;;;57.70;3.30;;;;;;;;;;5051808;28;20519;-69
2023/08/15 06:53:16;;;;;;;56.83;2.83;;;;;;;;;;5051592;28;20464;-69
2023/08/15 06:55:43;;;;;;;61.63;3.80;;;;;;;;;;5051855;28;20440;-69
2023/08/15 06:58:10;;;;;;;57.07;2.90;;;;;;;;;;5051863;28;20445;-69
2023/08/15 07:00:37;;;;;;;57.43;4.00;;;;;;;;;;5051607;28;20983;-69
2023/08/15 07:03:04;;;;;;;57.40;3.37;;;;;;;;;;5051630;28;20832;-69
2023/08/15 07:05:31;;;;;;;57.23;3.43;;;;;;;;;;5051500;28;20454;-69
2023/08/15 07:08:00;;;;;;;56.80;2.70;;;;;;;;;;5051742;28;20451;-69
2023/08/15 07:10:27;;;;;;;58.13;3.20;;;;;;;;;;5051615;28;20825;-68
2023/08/15 07:12:54;;;;;;;56.70;2.90;;;;;;;;;;5051217;28;20449;-69
2023/08/15 07:15:21;;;;;;;57.30;3.40;;;;;;;;;;5051004;28;20948;-68
2023/08/15 07:17:48;;;;;;;58.20;4.93;;;;;;;;;;5051514;28;20444;-68
2023/08/15 07:20:15;;;;;;;57.00;3.67;;;;;;;;;;5051602;28;20440;-68
2023/08/15 07:22:43;;;;;;;56.43;2.43;;;;;;;;;;5051166;28;20816;-68
2023/08/15 07:25:12;;;;;;;57.90;3.60;;;;;;;;;;5051402;28;20482;-68
2023/08/15 07:27:39;;;;;;;56.67;2.80;;;;;;;;;;5051154;28;20444;-68
2023/08/15 07:30:07;;;;;;;56.77;3.47;;;;;;;;;;5051088;28;20491;-68
2023/08/15 07:32:36;;;;;;;56.40;2.23;;;;;;;;;;5051141;28;20832;-68
2023/08/15 07:35:04;;;;;;;57.53;2.70;;;;;;;;;;5051294;28;20464;-68
2023/08/15 07:37:31;;;;;;;56.90;2.93;;;;;;;;;;5051053;28;20514;-68
2023/08/15 07:39:59;;;;;;;57.27;2.47;;;;;;;;;;5051187;28;20436;-69
2023/08/15 07:42:28;;;;;;;56.90;3.13;;;;;;;;;;5050874;28;20824;-68
2023/08/15 07:44:55;;;;;;;57.97;4.33;;;;;;;;;;5051279;28;20464;-68
2023/08/15 07:47:22;;;;;;;57.77;3.67;;;;;;;;;;5051016;28;20965;-68
2023/08/15 07:49:49;;;;;;;56.23;2.37;;;;;;;;;;5051407;28;20834;-68
2023/08/15 07:52:16;;;;;;;56.27;2.10;;;;;;;;;;5050746;28;20448;-68
2023/08/15 07:54:45;;;;;;;57.00;2.93;;;;;;;;;;5050954;28;20464;-68
2023/08/15 07:57:12;;;;;;;59.70;3.10;;;;;;;;;;5050859;28;20806;-68
2023/08/15 07:59:40;;;;;;;57.40;2.43;;;;;;;;;;5051097;28;20448;-68
2023/08/15 08:02:08;;;;;;;56.40;2.60;;;;;;;;;;5050853;28;20440;-68
2023/08/15 08:04:36;;;;;;;56.50;2.80;;;;;;;;;;5050949;28;20456;-68
2023/08/15 08:07:03;;;;;;;56.03;2.07;;;;;;;;;;5050655;28;20945;-69
2023/08/15 08:09:30;;;;;;;56.40;2.40;;;;;;;;;;5050694;28;20959;-69
2023/08/15 08:11:57;;;;;;;57.07;3.03;;;;;;;;;;5050594;28;20944;-69
2023/08/15 08:14:24;;;;;;;56.97;3.17;;;;;;;;;;5050925;28;20998;-69
2023/08/15 08:16:51;;;;;;;56.50;2.10;;;;;;;;;;5050848;28;20463;-69
2023/08/15 08:19:19;;;;;;;57.97;3.43;;;;;;;;;;5050935;28;20448;-68
2023/08/15 08:21:47;;;;;;;56.40;2.47;;;;;;;;;;5050595;28;20451;-68
2023/08/15 08:24:14;;;;;;;57.57;2.90;;;;;;;;;;5050657;28;20464;-69
2023/08/15 08:26:41;;;;;;;58.40;3.20;;;;;;;;;;5050910;28;20455;-69
2023/08/15 08:29:08;;;;;;;57.07;2.13;;;;;;;;;;5053290;28;20444;-69
2023/08/15 08:31:37;;;;;;;57.33;2.40;;;;;;;;;;5054530;28;20515;-69
2023/08/15 08:34:04;;;;;;;56.37;2.37;;;;;;;;;;5054402;28;20471;-68
2023/08/15 08:36:33;;;;;;;56.30;3.00;;;;;;;;;;5054425;28;20936;-69
2023/08/15 08:39:00;;;;;;;56.60;2.80;;;;;;;;;;5054307;28;20465;-69
2023/08/15 08:41:27;;;;;;;56.97;2.57;;;;;;;;;;5054528;28;20444;-69
2023/08/15 08:43:54;;;;;;;56.50;2.60;;;;;;;;;;5054143;28;20486;-68
2023/08/15 08:46:21;;;;;;;56.70;2.60;;;;;;;;;;5054274;28;20447;-69
2023/08/15 08:48:49;;;;;;;56.93;2.73;;;;;;;;;;5054745;28;20451;-69
2023/08/15 08:51:17;;;;;;;65.23;3.50;;;;;;;;;;5054011;28;20491;-68
2023/08/15 08:53:45;;;;;;;56.37;2.10;;;;;;;;;;5054020;28;20467;-68
2023/08/15 08:56:13;;;;;;;56.10;2.20;;;;;;;;;;5054148;28;20448;-68
2023/08/15 08:58:42;;;;;;;58.47;2.77;;;;;;;;;;5053986;28;20471;-69
2023/08/15 09:01:10;;;;;;;57.10;2.80;;;;;;;;;;5054063;28;20535;-68
2023/08/15 09:03:37;;;;;;;58.00;2.97;;;;;;;;;;5053563;28;20479;-68
2023/08/15 09:06:05;;;;;;;58.20;3.30;;;;;;;;;;5054148;28;20447;-69
2023/08/15 09:08:32;;;;;;;56.07;2.23;;;;;;;;;;5054022;28;20440;-69
2023/08/15 09:11:00;;;;;;;56.20;2.10;;;;;;;;;;5053884;28;20487;-69
2023/08/15 09:13:27;;;;;;;56.90;2.83;;;;;;;;;;5053504;28;20475;-69
2023/08/15 09:15:56;;;;;;;56.30;2.50;;;;;;;;;;5053640;28;20475;-69
2023/08/15 09:18:23;;;;;;;56.20;2.00;;;;;;;;;;5053915;28;20506;-69
2023/08/15 09:20:50;;;;;;;57.70;2.93;;;;;;;;;;5053754;28;20443;-68
2023/08/15 09:23:17;;;;;;;56.30;2.53;;;;;;;;;;5053189;28;20504;-69
2023/08/15 09:25:46;;;;;;;56.20;2.27;;;;;;;;;;5053638;28;20449;-68
2023/08/15 09:28:15;;;;;;;56.70;2.50;;;;;;;;;;5053549;28;20452;-69
2023/08/15 09:30:51;;;;;;;56.10;2.30;;;;;;;;;;5053313;28;20476;-69
2023/08/15 09:33:18;;;;;;;58.40;4.10;;;;;;;;;;5053344;28;20467;-69
2023/08/15 09:35:46;;;;;;;56.60;2.63;;;;;;;;;;5053426;28;20543;-69
2023/08/15 09:38:14;;;;;;;57.60;3.40;;;;;;;;;;5053110;28;20464;-69
2023/08/15 09:40:44;;;;;;;56.90;2.90;;;;;;;;;;5052785;28;20451;-68
2023/08/15 09:43:16;;;;;;;57.30;3.20;;;;;;;;;;5053300;28;20465;-69
2023/08/15 09:45:43;;;;;;;56.77;3.37;;;;;;;;;;5053391;28;20450;-69
2023/08/15 09:48:11;;;;;;;56.97;2.50;;;;;;;;;;5053344;28;20447;-68
2023/08/15 09:50:38;;;;;;;56.77;3.10;;;;;;;;;;5052953;28;20480;-69
2023/08/15 09:53:06;;;;;;;56.20;2.70;;;;;;;;;;5052832;28;20464;-68
2023/08/15 09:55:34;;;;;;;56.20;1.93;;;;;;;;;;5052774;28;20967;-68
2023/08/15 09:58:01;;;;;;;56.80;2.60;;;;;;;;;;5052854;28;20932;-68
2023/08/15 10:00:30;;;;;;;57.03;2.80;;;;;;;;;;5053139;28;20853;-68
2023/08/15 10:03:01;;;;;;;57.40;3.63;;;;;;;;;;5052670;28;20479;-68
2023/08/15 10:05:31;;;;;;;56.60;2.67;;;;;;;;;;5052889;28;20448;-68
2023/08/15 10:07:59;;;;;;;56.20;2.40;;;;;;;;;;5052820;28;20440;-68
2023/08/15 10:10:26;;;;;;;56.27;2.40;;;;;;;;;;5052615;28;20483;-69
2023/08/15 10:12:54;;;;;;;56.57;2.60;;;;;;;;;;5052596;28;20519;-69
2023/08/15 10:15:21;;;;;;;57.27;2.90;;;;;;;;;;5052770;28;20450;-69
2023/08/15 10:17:51;;;;;;;56.50;2.73;;;;;;;;;;5052691;28;20444;-69
2023/08/15 10:20:19;;;;;;;57.20;3.00;;;;;;;;;;5052612;28;20451;-69
2023/08/15 10:22:46;;;;;;;56.20;2.40;;;;;;;;;;5052104;28;20444;-69
2023/08/15 10:25:28;;;;;;;56.50;2.40;;;;;;;;;;5052635;28;20440;-68
2023/08/15 10:27:56;;;;;;;55.77;1.90;;;;;;;;;;5052373;28;20444;-69
2023/08/15 10:30:30;;;;;;;55.90;1.83;;;;;;;;;;5052402;28;20483;-69
2023/08/15 10:33:01;;;;;;;57.47;2.07;;;;;;;;;;5051993;28;20505;-69
2023/08/15 10:35:29;;;;;;;57.80;3.40;;;;;;;;;;5052144;28;20444;-68
2023/08/15 10:37:57;;;;;;;56.10;1.70;;;;;;;;;;5052081;28;20974;-69
2023/08/15 10:40:29;;;;;;;56.20;2.07;;;;;;;;;;5052327;28;20441;-69
2023/08/15 10:43:12;;;;;;;58.30;3.77;;;;;;;;;;5051938;28;20448;-69
2023/08/15 10:45:44;;;;;;;56.50;2.57;;;;;;;;;;5051925;28;20531;-69
2023/08/15 10:48:12;;;;;;;56.00;2.10;;;;;;;;;;5052106;28;20451;-69
2023/08/15 10:50:45;;;;;;;55.83;1.93;;;;;;;;;;5051398;28;20991;-69
2023/08/15 10:53:12;;;;;;;56.57;2.50;;;;;;;;;;5051716;28;20813;-69
2023/08/15 10:55:39;;;;;;;55.93;2.43;;;;;;;;;;5051844;28;20814;-69
2023/08/15 10:58:08;;;;;;;56.00;2.13;;;;;;;;;;5052256;28;20444;-69
2023/08/15 11:00:36;;;;;;;56.00;1.97;;;;;;;;;;5051895;28;20467;-69
2023/08/15 11:03:03;;;;;;;55.80;1.87;;;;;;;;;;5051505;28;20469;-70
2023/08/15 11:05:31;;;;;;;56.00;1.90;;;;;;;;;;5051740;28;20447;-70
2023/08/15 11:08:15;;;;;;;55.37;1.80;;;;;;;;;;5051715;28;20446;-70
2023/08/15 11:10:46;;;;;;;55.00;1.50;;;;;;;;;;5051417;28;20478;-70
2023/08/15 11:13:12;;;;;;;55.60;1.80;;;;;;;;;;5051263;28;20478;-70
2023/08/15 11:15:39;;;;;;;56.57;2.27;;;;;;;;;;5051642;28;20856;-70
2023/08/15 11:18:06;;;;;;;55.57;1.80;;;;;;;;;;5051522;28;20448;-70
2023/08/15 11:20:35;;;;;;;55.40;1.60;;;;;;;;;;5051481;28;20448;-71
2023/08/15 11:23:02;;;;;;;55.57;2.20;;;;;;;;;;5051427;28;20475;-70
2023/08/15 11:25:29;;;;;;;55.27;1.67;;;;;;;;;;5051205;28;20467;-70
2023/08/15 11:27:56;;;;;;;58.87;2.47;;;;;;;;;;5051539;28;20448;-70
2023/08/15 11:30:23;;;;;;;55.60;1.70;;;;;;;;;;5051235;28;20441;-70
2023/08/15 11:32:51;;;;;;;55.17;1.80;;;;;;;;;;5050893;28;20452;-70
2023/08/15 11:35:19;;;;;;;55.10;1.73;;;;;;;;;;5051308;28;20448;-70
2023/08/15 11:37:47;;;;;;;55.47;2.07;;;;;;;;;;5050995;28;20490;-70
2023/08/15 11:40:14;;;;;;;55.40;1.80;;;;;;;;;;5051390;28;20446;-70
2023/08/15 11:42:42;;;;;;;55.40;1.80;;;;;;;;;;5050988;28;20446;-70
2023/08/15 11:45:13;;;;;;;55.30;1.70;;;;;;;;;;5051359;28;20447;-70
2023/08/15 11:47:53;;;;;;;57.10;1.87;;;;;;;;;;5051473;28;20444;-70
2023/08/15 11:50:20;;;;;;;56.37;3.10;;;;;;;;;;5051018;28;20447;-70
2023/08/15 11:52:48;;;;;;;55.20;1.80;;;;;;;;;;5050879;28;20484;-70
2023/08/15 11:55:18;;;;;;;55.60;2.30;;;;;;;;;;5051045;28;20459;-71
2023/08/15 11:57:45;;;;;;;55.47;2.00;;;;;;;;;;5051139;28;20474;-70
2023/08/15 12:00:12;;;;;;;54.97;1.90;;;;;;;;;;5051159;28;20483;-70
2023/08/15 12:02:44;;;;;;;56.47;2.17;;;;;;;;;;5052576;28;20452;-71
2023/08/15 12:05:11;;;;;;;55.57;2.40;;;;;;;;;;5055408;28;20522;-70
2023/08/15 12:07:39;;;;;;;55.40;2.47;;;;;;;;;;5055145;28;20448;-70
2023/08/15 12:10:08;;;;;;;55.17;2.17;;;;;;;;;;5055057;28;20452;-71
2023/08/15 12:12:38;;;;;;;54.80;1.80;;;;;;;;;;5054688;28;20862;-70
2023/08/15 12:15:06;;;;;;;55.00;2.13;;;;;;;;;;5054861;28;20886;-71
2023/08/15 12:17:33;;;;;;;54.80;1.80;;;;;;;;;;5054963;28;20454;-71
2023/08/15 12:20:00;;;;;;;55.80;2.47;;;;;;;;;;5054995;28;20444;-71
2023/08/15 12:22:27;;;;;;;54.80;2.50;;;;;;;;;;5054445;28;20440;-71
2023/08/15 12:24:54;;;;;;;54.93;2.10;;;;;;;;;;5054772;28;20846;-71
2023/08/15 12:27:23;;;;;;;54.93;2.40;;;;;;;;;;5054732;28;20825;-71
2023/08/15 12:29:50;;;;;;;54.90;1.87;;;;;;;;;;5054628;28;20440;-71
2023/08/15 12:32:18;;;;;;;54.60;2.30;;;;;;;;;;5054525;28;20488;-71
2023/08/15 12:34:45;;;;;;;66.70;3.77;;;;;;;;;;5054732;28;20526;-71
2023/08/15 12:37:12;;;;;;;54.77;1.87;;;;;;;;;;5054436;28;20460;-71
2023/08/15 12:39:39;;;;;;;54.53;2.23;;;;;;;;;;5054934;28;20530;-71
2023/08/15 12:42:07;;;;;;;55.40;2.60;;;;;;;;;;5054267;28;20803;-71
2023/08/15 12:44:35;;;;;;;54.50;2.40;;;;;;;;;;5054130;28;20467;-69
2023/08/15 12:47:02;;;;;;;54.53;2.43;;;;;;;;;;5054459;28;20440;-69
2023/08/15 12:49:29;;;;;;;54.50;2.00;;;;;;;;;;5054468;28;20440;-69
2023/08/15 12:51:56;;;;;;;54.80;2.03;;;;;;;;;;5053953;28;20479;-68
2023/08/15 12:54:24;;;;;;;55.00;2.73;;;;;;;;;;5054185;28;20468;-69
2023/08/15 12:56:51;;;;;;;54.40;1.83;;;;;;;;;;5054036;28;20948;-69
2023/08/15 12:59:18;;;;;;;54.03;2.00;;;;;;;;;;5054228;28;20437;-69
2023/08/15 13:01:46;;;;;;;54.80;2.80;;;;;;;;;;5053963;28;20443;-69
2023/08/15 13:04:14;;;;;;;54.60;2.30;;;;;;;;;;5053918;28;20472;-69
2023/08/15 13:06:42;;;;;;;55.20;3.10;;;;;;;;;;5054061;28;20557;-69
2023/08/15 13:09:09;;;;;;;54.70;2.10;;;;;;;;;;5053865;28;20547;-69
2023/08/15 13:11:36;;;;;;;54.90;2.67;;;;;;;;;;5053572;28;20487;-69
2023/08/15 13:14:04;;;;;;;54.47;2.43;;;;;;;;;;5052919;28;20468;-71
2023/08/15 13:16:31;;;;;;;54.80;2.20;;;;;;;;;;5053883;28;20440;-70
2023/08/15 13:18:59;;;;;;;54.90;2.30;;;;;;;;;;5053837;28;20551;-70
2023/08/15 13:21:27;;;;;;;55.47;2.40;;;;;;;;;;5053710;28;20440;-71
2023/08/15 13:23:54;;;;;;;54.30;1.90;;;;;;;;;;5053235;28;20972;-71
2023/08/15 13:26:21;;;;;;;54.90;2.20;;;;;;;;;;5053761;28;20444;-71
2023/08/15 13:28:48;;;;;;;54.70;2.23;;;;;;;;;;5053652;28;20448;-71
2023/08/15 13:31:15;;;;;;;55.93;3.00;;;;;;;;;;5053460;28;20962;-70
2023/08/15 13:33:44;;;;;;;54.47;1.90;;;;;;;;;;5053129;28;20992;-70
2023/08/15 13:36:12;;;;;;;54.77;1.90;;;;;;;;;;5053374;28;20773;-71
2023/08/15 13:38:39;;;;;;;54.50;1.80;;;;;;;;;;5053172;28;20452;-71
2023/08/15 13:41:07;;;;;;;55.40;2.90;;;;;;;;;;5053475;28;20451;-71
2023/08/15 13:43:34;;;;;;;55.20;2.30;;;;;;;;;;5053049;28;20468;-70
2023/08/15 13:46:05;;;;;;;54.93;2.50;;;;;;;;;;5053268;28;20444;-71
2023/08/15 13:48:32;;;;;;;55.50;2.60;;;;;;;;;;5053349;28;20569;-71
2023/08/15 13:51:00;;;;;;;54.67;2.33;;;;;;;;;;5053053;28;20440;-71
2023/08/15 13:53:29;;;;;;;56.37;3.00;;;;;;;;;;5052780;28;21066;-71
2023/08/15 13:55:56;;;;;;;54.30;2.10;;;;;;;;;;5052985;28;20456;-69
2023/08/15 13:58:23;;;;;;;57.17;2.63;;;;;;;;;;5053028;28;20952;-69
2023/08/15 14:00:50;;;;;;;54.33;1.80;;;;;;;;;;5053148;28;20444;-69
2023/08/15 14:03:17;;;;;;;54.80;2.20;;;;;;;;;;5052603;28;20487;-69
2023/08/15 14:05:45;;;;;;;54.90;2.07;;;;;;;;;;5052709;28;20473;-69
2023/08/15 14:08:12;;;;;;;54.60;2.10;;;;;;;;;;5052835;28;20444;-70
2023/08/15 14:10:40;;;;;;;54.60;2.10;;;;;;;;;;5052894;28;20549;-68
2023/08/15 14:13:07;;;;;;;55.00;2.03;;;;;;;;;;5052474;28;20467;-69
2023/08/15 14:15:36;;;;;;;54.97;2.10;;;;;;;;;;5052671;28;20444;-70
2023/08/15 14:18:03;;;;;;;55.73;2.60;;;;;;;;;;5052580;28;20455;-70
2023/08/15 14:20:30;;;;;;;54.77;2.07;;;;;;;;;;5052548;28;20932;-70
2023/08/15 14:22:58;;;;;;;55.17;1.97;;;;;;;;;;5052373;28;20529;-70
2023/08/15 14:25:25;;;;;;;55.57;2.23;;;;;;;;;;5052436;28;20444;-69
2023/08/15 14:27:54;;;;;;;54.97;2.20;;;;;;;;;;5052584;28;20450;-70
2023/08/15 14:30:21;;;;;;;55.07;1.93;;;;;;;;;;5052469;28;20444;-70
2023/08/15 14:32:48;;;;;;;55.20;1.90;;;;;;;;;;5051971;28;21000;-70
2023/08/15 14:35:15;;;;;;;55.10;2.03;;;;;;;;;;5052544;28;20451;-70
2023/08/15 14:37:42;;;;;;;55.60;2.73;;;;;;;;;;5052303;28;20463;-69